In Rescue
 
Open Full Screen Window  High Contrast Mode
Wind Gusting 15 knots
07
May 25, 2022 8:49 PM EDT
Weather Information
Wind Direction
  130 °
Wind Speed
  07 kt (8 mph)
Wind Gust
  15 kt (17 mph)
Altimeter
29.99 in
Visibility
10 SM
Temperature
23° C
73° F
Dewpoint
17° C
63° F
Humidity
69%
1hr Rain Fall
00.00 in.
24hr Rain Fall
00.00 in.
Sky Condition
Clear
VFR

METAR KDLZ 260049Z AUTO 13007G15KT 10SM CLR 23/17 A2999 RMK AO2

FAA Disclaimer: The data displayed is for advisory purposes only and is not to be used for flight planning or operations.